createdAt,value
2023-04-08T00:01:22.501Z,36.40
2023-04-08T00:03:50.990Z,33.90
2023-04-08T00:06:19.493Z,34.50
2023-04-08T00:08:47.886Z,33.50
2023-04-08T00:11:16.465Z,35.10
2023-04-08T00:13:44.931Z,35.10
2023-04-08T00:16:13.620Z,35.70
2023-04-08T00:18:43.036Z,35.00
2023-04-08T00:21:11.723Z,34.30
2023-04-08T00:23:40.616Z,44.90
2023-04-08T00:26:08.806Z,51.90
2023-04-08T00:28:38.397Z,47.60
2023-04-08T00:31:07.078Z,43.10
2023-04-08T00:33:35.902Z,43.30
2023-04-08T00:36:04.838Z,52.50
2023-04-08T00:38:33.708Z,61.30
2023-04-08T00:41:02.007Z,47.80
2023-04-08T00:43:30.569Z,50.10
2023-04-08T00:45:59.487Z,49.00
2023-04-08T00:48:28.254Z,43.60
2023-04-08T00:50:56.838Z,43.80
2023-04-08T00:53:25.887Z,43.40
2023-04-08T00:55:54.424Z,40.90
2023-04-08T00:58:23.196Z,39.20
2023-04-08T01:00:58.869Z,41.10
2023-04-08T01:04:16.968Z,43.20
2023-04-08T01:06:54.278Z,41.90
2023-04-08T01:09:28.288Z,44.80
2023-04-08T01:11:57.980Z,44.10
2023-04-08T01:14:28.434Z,43.30
2023-04-08T01:16:59.380Z,43.10
2023-04-08T01:19:33.392Z,40.50
2023-04-08T01:22:13.341Z,42.70
2023-04-08T01:24:44.393Z,42.20
2023-04-08T01:27:14.615Z,39.40
2023-04-08T01:29:44.535Z,41.20
2023-04-08T01:32:14.753Z,41.10
2023-04-08T01:34:45.500Z,42.50
2023-04-08T01:37:15.837Z,41.20
2023-04-08T01:39:45.954Z,40.00
2023-04-08T01:42:14.560Z,39.90
2023-04-08T01:44:43.600Z,37.10
2023-04-08T01:47:14.352Z,39.70
2023-04-08T01:49:44.507Z,39.70
2023-04-08T01:52:14.943Z,40.50
2023-04-08T01:54:43.424Z,38.00
2023-04-08T01:57:17.846Z,38.30
2023-04-08T01:59:51.652Z,37.90
2023-04-08T02:02:27.410Z,37.30
2023-04-08T02:04:56.815Z,35.70
2023-04-08T02:07:25.300Z,38.00
2023-04-08T02:09:53.464Z,38.30
2023-04-08T02:12:21.866Z,39.20
2023-04-08T02:14:50.052Z,38.50
2023-04-08T02:17:25.650Z,37.30
2023-04-08T02:20:11.247Z,39.30
2023-04-08T02:22:39.962Z,36.30
2023-04-08T02:25:17.994Z,38.80
2023-04-08T02:27:49.452Z,36.80
2023-04-08T02:30:19.142Z,36.10
2023-04-08T02:32:50.874Z,37.10
2023-04-08T02:35:20.555Z,37.00
2023-04-08T02:37:49.311Z,36.00
2023-04-08T02:40:25.536Z,37.00
2023-04-08T02:42:54.669Z,37.30
2023-04-08T02:45:27.654Z,37.50
2023-04-08T02:47:56.399Z,39.00
2023-04-08T02:50:25.140Z,39.40
2023-04-08T02:52:53.744Z,37.60
2023-04-08T02:55:22.216Z,38.40
2023-04-08T02:57:50.705Z,39.40
2023-04-08T03:00:19.214Z,40.00
2023-04-08T03:02:47.911Z,38.60
2023-04-08T03:05:17.101Z,41.20
2023-04-08T03:07:45.674Z,40.20
2023-04-08T03:10:14.059Z,41.30
2023-04-08T03:12:42.447Z,41.80
2023-04-08T03:15:11.035Z,42.80
2023-04-08T03:17:39.548Z,41.50
2023-04-08T03:20:09.400Z,45.50
2023-04-08T03:22:38.135Z,45.20
2023-04-08T03:25:07.039Z,47.40
2023-04-08T03:27:35.409Z,46.10
2023-04-08T03:30:04.147Z,45.00
2023-04-08T03:32:33.311Z,46.80
2023-04-08T03:35:01.795Z,47.80
2023-04-08T03:37:30.628Z,48.20
2023-04-08T03:39:58.971Z,47.40
2023-04-08T03:42:27.562Z,48.60
2023-04-08T03:44:56.254Z,47.90
2023-04-08T03:47:25.066Z,47.10
2023-04-08T03:49:54.966Z,46.30
2023-04-08T03:52:25.073Z,48.00
2023-04-08T03:54:53.382Z,46.70
2023-04-08T03:57:21.665Z,48.90
2023-04-08T03:59:49.833Z,59.70
2023-04-08T04:02:18.053Z,62.50
2023-04-08T04:04:46.871Z,46.20
2023-04-08T04:07:15.295Z,48.10
2023-04-08T04:09:43.571Z,58.10
2023-04-08T04:12:12.161Z,55.40
2023-04-08T04:14:40.954Z,48.70
2023-04-08T04:17:09.351Z,44.60
2023-04-08T04:19:38.031Z,41.00
2023-04-08T04:22:06.417Z,40.10
2023-04-08T04:24:34.907Z,41.00
2023-04-08T04:27:03.393Z,39.90
2023-04-08T04:29:33.225Z,40.20
2023-04-08T04:32:01.502Z,42.00
2023-04-08T04:34:29.976Z,43.50
2023-04-08T04:36:58.357Z,43.90
2023-04-08T04:39:27.568Z,44.90
2023-04-08T04:41:55.850Z,45.20
2023-04-08T04:44:24.353Z,44.80
2023-04-08T04:46:53.355Z,44.10
2023-04-08T04:49:22.226Z,44.00
2023-04-08T04:51:50.711Z,46.50
2023-04-08T04:54:19.096Z,46.80
2023-04-08T04:56:47.481Z,44.80
2023-04-08T04:59:15.971Z,47.00
2023-04-08T05:01:44.437Z,64.10
2023-04-08T05:04:12.842Z,55.90
2023-04-08T05:06:41.230Z,51.50
2023-04-08T05:09:09.417Z,51.80
2023-04-08T05:11:37.711Z,55.30
2023-04-08T05:14:07.305Z,56.90
2023-04-08T05:16:36.251Z,54.40
2023-04-08T05:19:05.003Z,58.70
2023-04-08T05:21:33.381Z,49.10
2023-04-08T05:24:01.781Z,46.80
2023-04-08T05:26:29.952Z,47.10
2023-04-08T05:28:58.467Z,49.60
2023-04-08T05:31:27.313Z,49.60
2023-04-08T05:33:55.816Z,49.20
2023-04-08T05:36:24.098Z,53.80
2023-04-08T05:38:52.551Z,50.70
2023-04-08T05:41:21.701Z,53.40
2023-04-08T05:43:49.976Z,50.80
2023-04-08T05:46:18.996Z,47.50
2023-04-08T05:48:48.040Z,49.80
2023-04-08T05:51:18.426Z,51.50
2023-04-08T05:53:47.293Z,44.30
2023-04-08T05:56:15.680Z,44.20
2023-04-08T05:58:44.063Z,43.20
2023-04-08T06:01:12.852Z,41.30
2023-04-08T06:03:41.419Z,36.30
2023-04-08T06:06:11.927Z,41.10
2023-04-08T06:08:41.244Z,40.90
2023-04-08T06:11:09.555Z,47.30
2023-04-08T06:13:38.560Z,48.50
2023-04-08T06:16:15.591Z,53.20
2023-04-08T06:18:44.328Z,53.50
2023-04-08T06:21:13.123Z,52.70
2023-04-08T06:23:42.036Z,56.30
2023-04-08T06:26:11.037Z,54.70
2023-04-08T06:28:39.502Z,50.20
2023-04-08T06:31:07.788Z,46.90
2023-04-08T06:33:36.069Z,43.80
2023-04-08T06:36:06.017Z,40.50
2023-04-08T06:38:34.584Z,38.60
2023-04-08T06:41:06.962Z,39.00
2023-04-08T06:43:38.024Z,45.80
2023-04-08T06:46:07.407Z,41.10
2023-04-08T06:48:37.905Z,37.80
2023-04-08T06:51:08.033Z,42.30
2023-04-08T06:53:36.557Z,66.70
2023-04-08T06:56:05.348Z,41.60
2023-04-08T06:58:33.467Z,40.30
2023-04-08T07:01:03.355Z,40.60
2023-04-08T07:03:31.994Z,38.80
2023-04-08T07:06:00.626Z,38.80
2023-04-08T07:08:29.119Z,40.00
2023-04-08T07:10:57.599Z,38.40
2023-04-08T07:13:26.190Z,39.30
2023-04-08T07:15:54.764Z,35.60
2023-04-08T07:18:23.958Z,38.90
2023-04-08T07:20:54.123Z,41.00
2023-04-08T07:23:23.108Z,39.20
2023-04-08T07:25:51.700Z,44.20
2023-04-08T07:28:22.632Z,38.60
2023-04-08T07:30:50.938Z,40.10
2023-04-08T07:33:20.123Z,39.00
2023-04-08T07:35:48.643Z,39.30
2023-04-08T07:38:17.194Z,38.30
2023-04-08T07:40:45.380Z,40.30
2023-04-08T07:43:13.761Z,37.80
2023-04-08T07:45:42.860Z,39.00
2023-04-08T07:48:11.396Z,40.60
2023-04-08T07:51:07.980Z,38.10
2023-04-08T07:53:28.787Z,38.80
2023-04-08T07:55:58.604Z,37.20
2023-04-08T07:58:27.459Z,36.90
2023-04-08T08:00:57.625Z,35.50
2023-04-08T08:03:26.110Z,33.70
2023-04-08T08:05:54.700Z,35.60
2023-04-08T08:08:23.083Z,35.00
2023-04-08T08:10:51.273Z,30.80
2023-04-08T08:13:22.415Z,31.60
2023-04-08T08:15:54.128Z,30.50
2023-04-08T08:18:22.563Z,29.40
2023-04-08T08:20:51.070Z,28.90
2023-04-08T08:23:19.331Z,29.50
2023-04-08T08:25:47.814Z,29.30
2023-04-08T08:28:15.994Z,29.60
2023-04-08T08:30:44.279Z,27.40
2023-04-08T08:33:12.867Z,27.20
2023-04-08T08:35:41.094Z,25.90
2023-04-08T08:38:09.532Z,27.90
2023-04-08T08:40:37.919Z,26.30
2023-04-08T08:43:06.302Z,26.70
2023-04-08T08:45:41.044Z,28.30
2023-04-08T08:48:09.845Z,30.30
2023-04-08T08:50:38.336Z,31.30
2023-04-08T08:53:06.798Z,35.40
2023-04-08T08:56:00.306Z,33.30
2023-04-08T08:58:28.059Z,32.80
2023-04-08T09:00:56.518Z,32.10
2023-04-08T09:03:29.631Z,28.90
2023-04-08T09:05:59.546Z,28.70
2023-04-08T09:08:34.680Z,25.90
2023-04-08T09:11:15.916Z,27.40
2023-04-08T09:13:45.575Z,25.50
2023-04-08T09:16:20.336Z,23.70
2023-04-08T09:18:50.006Z,24.90
2023-04-08T09:21:22.714Z,26.10
2023-04-08T09:23:53.190Z,25.20
2023-04-08T09:26:24.375Z,25.00
2023-04-08T09:29:14.287Z,24.50
2023-04-08T09:31:59.202Z,26.60
2023-04-08T09:34:29.803Z,28.10
2023-04-08T09:36:58.232Z,26.30
2023-04-08T09:39:26.605Z,27.40
2023-04-08T09:42:01.540Z,26.70
2023-04-08T09:44:33.387Z,25.60
2023-04-08T09:47:13.048Z,26.60
2023-04-08T09:49:50.434Z,27.70
2023-04-08T09:52:42.766Z,26.80
2023-04-08T09:55:14.457Z,28.00
2023-04-08T09:57:59.694Z,29.70
2023-04-08T10:00:32.679Z,29.80
2023-04-08T10:03:19.225Z,28.70
2023-04-08T10:05:49.918Z,29.70
2023-04-08T10:08:18.919Z,27.30
2023-04-08T10:10:48.140Z,26.60
2023-04-08T10:13:17.092Z,28.20
2023-04-08T10:15:47.818Z,28.00
2023-04-08T10:18:19.419Z,27.00
2023-04-08T10:20:49.476Z,26.20
2023-04-08T10:23:18.834Z,27.70
2023-04-08T10:25:48.707Z,27.60
2023-04-08T10:28:18.505Z,27.50
2023-04-08T10:30:51.575Z,26.50
2023-04-08T10:33:31.315Z,27.90
2023-04-08T10:36:12.132Z,26.10
2023-04-08T10:38:44.432Z,24.30
2023-04-08T10:41:21.817Z,24.70
2023-04-08T10:43:51.111Z,23.80
2023-04-08T10:46:20.063Z,23.60
2023-04-08T10:49:01.670Z,23.50
2023-04-08T10:51:35.243Z,22.60
2023-04-08T10:54:08.618Z,21.20
2023-04-08T10:56:43.982Z,20.30
2023-04-08T10:59:13.994Z,19.50
2023-04-08T11:01:45.291Z,19.30
2023-04-08T11:04:23.766Z,16.90
2023-04-08T11:06:52.291Z,17.50
2023-04-08T11:09:21.256Z,19.30
2023-04-08T11:11:49.747Z,16.50
2023-04-08T11:14:22.125Z,16.70
2023-04-08T11:16:52.204Z,17.50
2023-04-08T11:19:20.825Z,16.70
2023-04-08T11:21:51.562Z,16.00
2023-04-08T11:24:22.461Z,15.40
2023-04-08T11:26:51.330Z,14.70
2023-04-08T11:29:21.391Z,15.00
2023-04-08T11:31:51.557Z,13.40
2023-04-08T11:34:24.795Z,14.90
2023-04-08T11:36:53.462Z,14.80
2023-04-08T11:39:24.900Z,15.20
2023-04-08T11:41:53.476Z,15.50
2023-04-08T11:44:33.432Z,16.00
2023-04-08T11:47:02.837Z,15.30
2023-04-08T11:49:44.836Z,15.30
2023-04-08T11:52:13.985Z,16.20
2023-04-08T11:54:43.365Z,17.50
2023-04-08T11:57:11.928Z,17.30
2023-04-08T11:59:40.418Z,15.60
2023-04-08T12:02:09.450Z,14.00
2023-04-08T12:04:38.271Z,16.60
2023-04-08T12:07:06.692Z,14.70
2023-04-08T12:09:35.093Z,12.80
2023-04-08T12:12:03.568Z,13.40
2023-04-08T12:14:32.359Z,15.20
2023-04-08T12:17:01.360Z,16.70
2023-04-08T12:19:31.199Z,14.80
2023-04-08T12:22:00.788Z,13.90
2023-04-08T12:24:29.173Z,19.00
2023-04-08T12:26:57.965Z,20.00
2023-04-08T12:29:26.145Z,20.90
2023-04-08T12:31:54.735Z,19.00
2023-04-08T12:34:23.239Z,17.80
2023-04-08T12:36:51.610Z,16.80
2023-04-08T12:39:19.891Z,17.80
2023-04-08T12:41:48.482Z,17.90
2023-04-08T12:44:17.377Z,16.90
2023-04-08T12:46:46.574Z,18.10
2023-04-08T12:49:15.174Z,17.40
2023-04-08T12:51:43.660Z,19.20
2023-04-08T12:54:12.674Z,18.30
2023-04-08T12:56:43.394Z,18.10
2023-04-08T12:59:11.882Z,16.80
2023-04-08T13:01:40.196Z,18.10
2023-04-08T13:04:09.014Z,18.50
2023-04-08T13:06:37.344Z,16.90
2023-04-08T13:09:05.627Z,17.10
2023-04-08T13:11:34.367Z,18.30
2023-04-08T13:14:02.833Z,21.10
2023-04-08T13:16:31.319Z,21.00
2023-04-08T13:18:59.883Z,22.90
2023-04-08T13:21:28.365Z,20.90
2023-04-08T13:23:56.657Z,20.60
2023-04-08T13:26:25.138Z,24.00
2023-04-08T13:28:57.198Z,18.90
2023-04-08T13:31:26.886Z,19.50
2023-04-08T13:33:57.921Z,18.40
2023-04-08T13:36:29.069Z,20.80
2023-04-08T13:38:57.902Z,20.80
2023-04-08T13:41:28.334Z,20.80
2023-04-08T13:43:57.137Z,21.80
2023-04-08T13:46:26.145Z,20.40
2023-04-08T13:48:56.251Z,22.00
2023-04-08T13:51:24.849Z,21.60
2023-04-08T13:53:53.327Z,21.90
2023-04-08T13:56:21.707Z,21.60
2023-04-08T13:58:56.824Z,22.30
2023-04-08T14:01:25.999Z,20.40
2023-04-08T14:03:54.333Z,20.50
2023-04-08T14:06:23.337Z,20.60
2023-04-08T14:08:51.872Z,21.10
2023-04-08T14:11:21.531Z,20.30
2023-04-08T14:13:50.032Z,21.80
2023-04-08T14:16:18.988Z,21.20
2023-04-08T14:18:47.502Z,21.10
2023-04-08T14:21:18.368Z,21.70
2023-04-08T14:23:46.942Z,20.50
2023-04-08T14:26:16.032Z,20.40
2023-04-08T14:28:44.524Z,17.90
2023-04-08T14:31:13.253Z,19.10
2023-04-08T14:33:42.838Z,18.00
2023-04-08T14:36:12.411Z,16.50
2023-04-08T14:38:41.028Z,18.00
2023-04-08T14:41:09.413Z,18.60
2023-04-08T14:43:37.740Z,18.10
2023-04-08T14:46:06.393Z,17.70
2023-04-08T14:48:34.975Z,19.30
2023-04-08T14:51:04.506Z,18.20
2023-04-08T14:53:33.897Z,19.50
2023-04-08T14:56:02.283Z,20.40
2023-04-08T14:58:30.666Z,21.60
2023-04-08T15:00:58.946Z,22.70
2023-04-08T15:03:27.779Z,23.00
2023-04-08T15:05:59.837Z,24.70
2023-04-08T15:08:28.709Z,23.90
2023-04-08T15:10:57.289Z,25.60
2023-04-08T15:13:25.582Z,27.70
2023-04-08T15:15:54.909Z,27.80
2023-04-08T15:18:23.979Z,26.20
2023-04-08T15:20:52.873Z,28.50
2023-04-08T15:23:22.294Z,27.20
2023-04-08T15:25:51.182Z,26.10
2023-04-08T15:28:19.664Z,26.30
2023-04-08T15:30:49.595Z,25.90
2023-04-08T15:33:17.973Z,26.20
2023-04-08T15:35:49.820Z,25.00
2023-04-08T15:38:18.666Z,27.40
2023-04-08T15:40:48.213Z,27.10
2023-04-08T15:43:16.932Z,25.90
2023-04-08T15:45:46.955Z,26.20
2023-04-08T15:48:15.980Z,25.40
2023-04-08T15:50:44.597Z,26.70
2023-04-08T15:53:13.227Z,27.10
2023-04-08T15:55:42.188Z,27.50
2023-04-08T15:58:10.618Z,28.40
2023-04-08T16:00:39.105Z,28.90
2023-04-08T16:03:09.197Z,28.10
2023-04-08T16:05:39.878Z,26.30
2023-04-08T16:08:08.451Z,29.00
2023-04-08T16:10:36.829Z,29.00
2023-04-08T16:13:05.423Z,27.60
2023-04-08T16:15:34.828Z,29.30
2023-04-08T16:18:04.762Z,28.30
2023-04-08T16:20:33.441Z,28.30
2023-04-08T16:23:01.831Z,28.10
2023-04-08T16:25:30.516Z,28.00
2023-04-08T16:27:59.214Z,29.90
2023-04-08T16:30:27.927Z,31.00
2023-04-08T16:32:56.440Z,32.60
2023-04-08T16:35:24.975Z,33.50
2023-04-08T16:37:53.265Z,34.40
2023-04-08T16:40:22.274Z,32.90
2023-04-08T16:42:51.374Z,37.20
2023-04-08T16:45:19.767Z,45.70
2023-04-08T16:47:48.580Z,37.00
2023-04-08T16:50:17.437Z,34.00
2023-04-08T16:52:49.626Z,35.10
2023-04-08T16:55:19.480Z,32.80
2023-04-08T16:57:48.011Z,32.60
2023-04-08T17:00:18.613Z,36.40
2023-04-08T17:02:49.372Z,39.10
2023-04-08T17:05:18.179Z,36.70
2023-04-08T17:07:46.775Z,36.10
2023-04-08T17:10:16.020Z,36.50
2023-04-08T17:12:44.766Z,36.60
2023-04-08T17:15:13.458Z,37.80
2023-04-08T17:17:42.155Z,35.60
2023-04-08T17:20:11.658Z,32.90
2023-04-08T17:22:39.950Z,33.10
2023-04-08T17:25:08.942Z,34.00
2023-04-08T17:27:37.950Z,35.10
2023-04-08T17:30:08.367Z,34.20
2023-04-08T17:32:37.847Z,37.20
2023-04-08T17:35:06.700Z,34.30
2023-04-08T17:37:35.061Z,35.90
2023-04-08T17:40:03.662Z,38.60
2023-04-08T17:42:32.456Z,40.40
2023-04-08T17:45:02.881Z,43.30
2023-04-08T17:47:31.537Z,47.00
2023-04-08T17:49:59.846Z,44.70
2023-04-08T17:52:28.238Z,43.10
2023-04-08T17:54:56.819Z,42.70
2023-04-08T17:57:25.211Z,38.30
2023-04-08T17:59:53.597Z,38.40
2023-04-08T18:02:22.552Z,36.20
2023-04-08T18:04:51.383Z,35.60
2023-04-08T18:07:19.971Z,33.70
2023-04-08T18:09:51.018Z,34.70
2023-04-08T18:12:20.113Z,32.90
2023-04-08T18:14:48.607Z,34.10
2023-04-08T18:17:17.090Z,33.00
2023-04-08T18:19:45.474Z,33.10
2023-04-08T18:22:16.006Z,42.70
2023-04-08T18:24:44.597Z,38.60
2023-04-08T18:27:12.982Z,35.40
2023-04-08T18:29:41.364Z,35.40
2023-04-08T18:32:09.952Z,33.80
2023-04-08T18:34:39.156Z,35.20
2023-04-08T18:37:07.444Z,35.10
2023-04-08T18:39:40.207Z,37.70
2023-04-08T18:42:08.614Z,38.30
2023-04-08T18:44:37.598Z,36.20
2023-04-08T18:47:07.412Z,35.90
2023-04-08T18:49:38.604Z,36.80
2023-04-08T18:52:08.558Z,37.50
2023-04-08T18:54:36.981Z,36.20
2023-04-08T18:57:05.468Z,33.80
2023-04-08T18:59:34.064Z,36.10
2023-04-08T19:02:02.535Z,41.00
2023-04-08T19:04:31.190Z,38.80
2023-04-08T19:06:59.413Z,37.60
2023-04-08T19:09:28.104Z,37.10
2023-04-08T19:11:56.586Z,38.40
2023-04-08T19:14:26.273Z,39.30
2023-04-08T19:16:54.899Z,37.70
2023-04-08T19:19:23.276Z,39.30
2023-04-08T19:21:51.669Z,38.10
2023-04-08T19:24:21.170Z,39.40
2023-04-08T19:26:52.112Z,39.20
2023-04-08T19:29:23.175Z,39.80
2023-04-08T19:31:51.543Z,39.80
2023-04-08T19:34:20.235Z,40.00
2023-04-08T19:36:48.728Z,40.00
2023-04-08T19:39:17.314Z,37.50
2023-04-08T19:41:46.274Z,39.40
2023-04-08T19:44:14.593Z,39.80
2023-04-08T19:46:43.509Z,40.30
2023-04-08T19:49:12.080Z,38.40
2023-04-08T19:51:40.564Z,39.40
2023-04-08T19:54:09.061Z,38.90
2023-04-08T19:56:37.332Z,37.90
2023-04-08T19:59:06.124Z,37.20
2023-04-08T20:01:36.430Z,38.30
2023-04-08T20:04:05.317Z,35.00
2023-04-08T20:06:34.963Z,35.90
2023-04-08T20:09:05.840Z,37.30
2023-04-08T20:11:34.499Z,36.20
2023-04-08T20:14:04.220Z,35.10
2023-04-08T20:16:34.412Z,35.20
2023-04-08T20:19:03.028Z,34.40
2023-04-08T20:21:31.516Z,35.90
2023-04-08T20:24:00.414Z,36.00
2023-04-08T20:26:29.001Z,37.10
2023-04-08T20:28:59.026Z,39.80
2023-04-08T20:31:28.193Z,39.90
2023-04-08T20:33:56.714Z,40.60
2023-04-08T20:36:25.422Z,39.30
2023-04-08T20:38:55.187Z,38.30
2023-04-08T20:41:24.527Z,39.40
2023-04-08T20:43:54.244Z,41.00
2023-04-08T20:46:24.799Z,41.30
2023-04-08T20:48:53.858Z,43.20
2023-04-08T20:51:22.469Z,41.50
2023-04-08T20:53:51.167Z,43.80
2023-04-08T20:56:19.645Z,44.70
2023-04-08T20:58:47.929Z,43.70
2023-04-08T21:01:16.663Z,43.00
2023-04-08T21:03:52.837Z,45.00
2023-04-08T21:06:22.258Z,44.60
2023-04-08T21:08:51.588Z,45.50
2023-04-08T21:11:20.185Z,45.60
2023-04-08T21:13:49.281Z,44.10
2023-04-08T21:16:18.025Z,44.10
2023-04-08T21:18:46.876Z,46.20
2023-04-08T21:21:15.264Z,45.10
2023-04-08T21:23:43.851Z,46.40
2023-04-08T21:26:13.679Z,49.10
2023-04-08T21:28:42.169Z,44.70
2023-04-08T21:31:12.087Z,45.30
2023-04-08T21:33:40.771Z,43.60
2023-04-08T21:36:09.282Z,45.00
2023-04-08T21:38:37.634Z,44.60
2023-04-08T21:41:06.025Z,45.20
2023-04-08T21:43:34.404Z,42.80
2023-04-08T21:46:03.818Z,41.20
2023-04-08T21:48:33.120Z,39.90
2023-04-08T21:51:01.941Z,43.30
2023-04-08T21:53:30.913Z,43.30
2023-04-08T21:55:59.391Z,42.90
2023-04-08T21:58:28.497Z,42.00
2023-04-08T22:00:57.102Z,40.60
2023-04-08T22:03:25.710Z,40.70
2023-04-08T22:05:54.273Z,39.30
2023-04-08T22:08:23.366Z,40.50
2023-04-08T22:10:52.054Z,41.60
2023-04-08T22:13:21.476Z,43.60
2023-04-08T22:15:49.888Z,44.20
2023-04-08T22:18:18.228Z,44.60
2023-04-08T22:20:47.228Z,46.00
2023-04-08T22:23:16.257Z,44.60
2023-04-08T22:25:44.859Z,46.10
2023-04-08T22:28:13.105Z,44.60
2023-04-08T22:30:41.625Z,45.40
2023-04-08T22:33:10.096Z,44.90
2023-04-08T22:35:40.849Z,44.80
2023-04-08T22:38:09.300Z,46.60
2023-04-08T22:40:37.888Z,46.30
2023-04-08T22:43:07.106Z,46.80
2023-04-08T22:45:37.363Z,48.40
2023-04-08T22:48:06.384Z,46.90
2023-04-08T22:50:35.011Z,46.50
2023-04-08T22:53:04.019Z,47.40
2023-04-08T22:55:32.388Z,47.70
2023-04-08T22:58:06.512Z,46.70
2023-04-08T23:00:35.301Z,47.70
2023-04-08T23:03:05.036Z,47.30
2023-04-08T23:05:34.100Z,45.80
2023-04-08T23:08:02.608Z,46.40
2023-04-08T23:10:30.884Z,46.50
2023-04-08T23:12:59.277Z,47.60
2023-04-08T23:15:28.160Z,45.30
2023-04-08T23:17:56.883Z,47.10
2023-04-08T23:20:32.920Z,44.60
2023-04-08T23:23:02.747Z,45.40
2023-04-08T23:25:31.011Z,43.50
2023-04-08T23:27:59.293Z,43.30
2023-04-08T23:30:27.781Z,42.50
2023-04-08T23:32:56.217Z,41.10
2023-04-08T23:35:24.753Z,41.80
2023-04-08T23:37:53.142Z,41.90
2023-04-08T23:40:21.732Z,42.20
2023-04-08T23:42:52.979Z,42.80
2023-04-08T23:45:21.589Z,40.80
2023-04-08T23:47:50.848Z,42.40
2023-04-08T23:50:23.206Z,43.00
2023-04-08T23:52:51.636Z,42.70
2023-04-08T23:55:20.142Z,45.60
2023-04-08T23:57:50.858Z,43.00
